sensor_id;sensor_type;location;lat;lon;timestamp;pressure;altitude;pressure_sealevel;temperature;humidity
4570;BME280;2297;51.442;6.996;2023-02-17T00:01:47;100718.53;;;10.61;61.22
4570;BME280;2297;51.442;6.996;2023-02-17T00:04:14;100718.91;;;10.33;62.26
4570;BME280;2297;51.442;6.996;2023-02-17T00:06:40;100730.72;;;10.71;61.26
4570;BME280;2297;51.442;6.996;2023-02-17T00:09:07;100718.53;;;10.61;61.81
4570;BME280;2297;51.442;6.996;2023-02-17T00:11:34;100718.38;;;10.70;61.38
4570;BME280;2297;51.442;6.996;2023-02-17T00:14:00;100712.81;;;10.89;61.06
4570;BME280;2297;51.442;6.996;2023-02-17T00:16:28;100711.09;;;10.86;60.95
4570;BME280;2297;51.442;6.996;2023-02-17T00:18:57;100723.75;;;10.64;61.82
4570;BME280;2297;51.442;6.996;2023-02-17T00:21:27;100709.44;;;10.80;61.65
4570;BME280;2297;51.442;6.996;2023-02-17T00:23:56;100705.88;;;10.83;61.25
4570;BME280;2297;51.442;6.996;2023-02-17T00:26:23;100707.91;;;10.64;61.63
4570;BME280;2297;51.442;6.996;2023-02-17T00:28:49;100707.88;;;10.67;61.75
4570;BME280;2297;51.442;6.996;2023-02-17T00:31:19;100703.41;;;10.71;62.02
4570;BME280;2297;51.442;6.996;2023-02-17T00:33:46;100708.78;;;10.66;62.07
4570;BME280;2297;51.442;6.996;2023-02-17T00:36:16;100704.31;;;10.68;62.24
4570;BME280;2297;51.442;6.996;2023-02-17T00:38:43;100699.63;;;10.89;61.32
4570;BME280;2297;51.442;6.996;2023-02-17T00:41:10;100698.78;;;10.85;61.28
4570;BME280;2297;51.442;6.996;2023-02-17T00:43:36;100696.16;;;10.84;61.42
4570;BME280;2297;51.442;6.996;2023-02-17T00:46:03;100698.25;;;10.61;62.09
4570;BME280;2297;51.442;6.996;2023-02-17T00:48:30;100691.09;;;10.71;61.57
4570;BME280;2297;51.442;6.996;2023-02-17T00:50:57;100693.09;;;10.55;62.12
4570;BME280;2297;51.442;6.996;2023-02-17T00:53:26;100688.19;;;10.87;61.22
4570;BME280;2297;51.442;6.996;2023-02-17T00:55:52;100692.91;;;10.68;61.78
4570;BME280;2297;51.442;6.996;2023-02-17T00:58:19;100683.31;;;10.59;62.51
4570;BME280;2297;51.442;6.996;2023-02-17T01:00:46;100681.06;;;10.92;61.65
4570;BME280;2297;51.442;6.996;2023-02-17T01:03:12;100688.16;;;10.90;61.94
4570;BME280;2297;51.442;6.996;2023-02-17T01:05:40;100684.84;;;10.75;62.34
4570;BME280;2297;51.442;6.996;2023-02-17T01:08:07;100690.63;;;11.01;61.59
4570;BME280;2297;51.442;6.996;2023-02-17T01:10:37;100678.53;;;10.84;62.27
4570;BME280;2297;51.442;6.996;2023-02-17T01:13:04;100692.06;;;10.64;62.94
4570;BME280;2297;51.442;6.996;2023-02-17T01:15:35;100679.50;;;10.78;62.75
4570;BME280;2297;51.442;6.996;2023-02-17T01:18:02;100675.97;;;10.79;63.15
4570;BME280;2297;51.442;6.996;2023-02-17T01:20:29;100671.22;;;11.00;62.63
4570;BME280;2297;51.442;6.996;2023-02-17T01:22:55;100668.16;;;10.73;63.28
4570;BME280;2297;51.442;6.996;2023-02-17T01:25:22;100667.63;;;10.50;63.80
4570;BME280;2297;51.442;6.996;2023-02-17T01:27:50;100663.53;;;10.86;63.06
4570;BME280;2297;51.442;6.996;2023-02-17T01:30:17;100665.81;;;11.08;62.54
4570;BME280;2297;51.442;6.996;2023-02-17T01:32:43;100667.81;;;10.93;62.77
4570;BME280;2297;51.442;6.996;2023-02-17T01:35:10;100657.41;;;10.86;63.26
4570;BME280;2297;51.442;6.996;2023-02-17T01:37:37;100664.34;;;10.91;63.10
4570;BME280;2297;51.442;6.996;2023-02-17T01:40:05;100653.19;;;10.72;64.08
4570;BME280;2297;51.442;6.996;2023-02-17T01:42:32;100654.84;;;10.79;63.86
4570;BME280;2297;51.442;6.996;2023-02-17T01:45:38;100652.06;;;10.89;63.65
4570;BME280;2297;51.442;6.996;2023-02-17T01:48:09;100652.88;;;10.91;63.54
4570;BME280;2297;51.442;6.996;2023-02-17T01:50:40;100639.22;;;10.67;64.53
4570;BME280;2297;51.442;6.996;2023-02-17T01:53:10;100638.00;;;10.85;64.10
4570;BME280;2297;51.442;6.996;2023-02-17T01:55:40;100634.84;;;10.64;64.71
4570;BME280;2297;51.442;6.996;2023-02-17T01:58:08;100632.31;;;10.57;65.09
4570;BME280;2297;51.442;6.996;2023-02-17T02:00:38;100629.41;;;10.72;65.05
4570;BME280;2297;51.442;6.996;2023-02-17T02:03:08;100617.94;;;10.73;64.91
4570;BME280;2297;51.442;6.996;2023-02-17T02:05:37;100621.44;;;10.75;64.76
4570;BME280;2297;51.442;6.996;2023-02-17T02:08:04;100619.69;;;10.74;64.89
4570;BME280;2297;51.442;6.996;2023-02-17T02:10:31;100613.41;;;10.81;64.66
4570;BME280;2297;51.442;6.996;2023-02-17T02:12:58;100609.66;;;10.43;66.08
4570;BME280;2297;51.442;6.996;2023-02-17T02:15:28;100621.53;;;10.69;65.34
4570;BME280;2297;51.442;6.996;2023-02-17T02:18:10;100611.75;;;10.76;64.87
4570;BME280;2297;51.442;6.996;2023-02-17T02:21:03;100612.34;;;10.92;64.18
4570;BME280;2297;51.442;6.996;2023-02-17T02:23:50;100605.81;;;10.61;64.86
4570;BME280;2297;51.442;6.996;2023-02-17T02:26:48;100616.31;;;10.66;64.85
4570;BME280;2297;51.442;6.996;2023-02-17T02:29:35;100612.88;;;10.61;64.70
4570;BME280;2297;51.442;6.996;2023-02-17T02:32:24;100616.47;;;10.57;64.67
4570;BME280;2297;51.442;6.996;2023-02-17T02:34:54;100615.19;;;10.81;63.66
4570;BME280;2297;51.442;6.996;2023-02-17T02:37:26;100609.06;;;10.77;63.85
4570;BME280;2297;51.442;6.996;2023-02-17T02:40:00;100609.78;;;10.89;63.42
4570;BME280;2297;51.442;6.996;2023-02-17T02:42:29;100602.06;;;10.76;63.49
4570;BME280;2297;51.442;6.996;2023-02-17T02:44:56;100604.50;;;10.89;63.15
4570;BME280;2297;51.442;6.996;2023-02-17T02:47:44;100594.91;;;10.81;63.25
4570;BME280;2297;51.442;6.996;2023-02-17T02:50:13;100588.47;;;10.98;62.67
4570;BME280;2297;51.442;6.996;2023-02-17T02:52:50;100577.09;;;10.93;62.71
4570;BME280;2297;51.442;6.996;2023-02-17T02:55:26;100586.38;;;10.67;63.18
4570;BME280;2297;51.442;6.996;2023-02-17T02:58:02;100571.75;;;10.96;62.68
4570;BME280;2297;51.442;6.996;2023-02-17T03:00:34;100575.31;;;10.93;62.38
4570;BME280;2297;51.442;6.996;2023-02-17T03:03:09;100565.72;;;10.89;62.37
4570;BME280;2297;51.442;6.996;2023-02-17T03:05:49;100569.31;;;10.85;62.71
4570;BME280;2297;51.442;6.996;2023-02-17T03:08:22;100582.22;;;11.02;62.03
4570;BME280;2297;51.442;6.996;2023-02-17T03:10:52;100573.41;;;11.03;62.26
4570;BME280;2297;51.442;6.996;2023-02-17T03:13:20;100571.94;;;10.87;62.37
4570;BME280;2297;51.442;6.996;2023-02-17T03:15:47;100556.84;;;10.93;62.14
4570;BME280;2297;51.442;6.996;2023-02-17T03:18:15;100569.91;;;11.01;62.28
4570;BME280;2297;51.442;6.996;2023-02-17T03:20:44;100575.16;;;11.04;62.01
4570;BME280;2297;51.442;6.996;2023-02-17T03:23:14;100565.34;;;11.12;61.77
4570;BME280;2297;51.442;6.996;2023-02-17T03:25:40;100572.69;;;10.95;62.02
4570;BME280;2297;51.442;6.996;2023-02-17T03:28:09;100564.09;;;10.82;61.81
4570;BME280;2297;51.442;6.996;2023-02-17T03:30:35;100556.88;;;10.92;61.86
4570;BME280;2297;51.442;6.996;2023-02-17T03:33:03;100563.63;;;11.07;61.73
4570;BME280;2297;51.442;6.996;2023-02-17T03:35:31;100556.59;;;11.07;61.53
4570;BME280;2297;51.442;6.996;2023-02-17T03:37:58;100553.53;;;11.29;61.10
4570;BME280;2297;51.442;6.996;2023-02-17T03:40:24;100561.00;;;11.05;61.43
4570;BME280;2297;51.442;6.996;2023-02-17T03:42:51;100562.44;;;11.25;61.16
4570;BME280;2297;51.442;6.996;2023-02-17T03:45:17;100558.88;;;11.27;60.53
4570;BME280;2297;51.442;6.996;2023-02-17T03:47:44;100557.22;;;11.22;60.75
4570;BME280;2297;51.442;6.996;2023-02-17T03:50:10;100567.72;;;11.25;60.95
4570;BME280;2297;51.442;6.996;2023-02-17T03:52:39;100571.44;;;11.14;60.98
4570;BME280;2297;51.442;6.996;2023-02-17T03:55:05;100584.72;;;11.10;61.29
4570;BME280;2297;51.442;6.996;2023-02-17T03:57:32;100579.38;;;11.14;60.80
4570;BME280;2297;51.442;6.996;2023-02-17T03:59:59;100585.38;;;11.23;60.89
4570;BME280;2297;51.442;6.996;2023-02-17T04:02:25;100576.78;;;11.13;61.07
4570;BME280;2297;51.442;6.996;2023-02-17T04:04:52;100572.41;;;11.10;61.35
4570;BME280;2297;51.442;6.996;2023-02-17T04:07:19;100564.22;;;11.23;60.67
4570;BME280;2297;51.442;6.996;2023-02-17T04:09:47;100574.38;;;10.99;61.31
4570;BME280;2297;51.442;6.996;2023-02-17T04:12:13;100579.47;;;11.08;61.29
4570;BME280;2297;51.442;6.996;2023-02-17T04:15:14;100580.81;;;10.82;61.67
4570;BME280;2297;51.442;6.996;2023-02-17T04:17:40;100580.31;;;11.13;61.12
4570;BME280;2297;51.442;6.996;2023-02-17T04:20:08;100587.03;;;11.30;60.39
4570;BME280;2297;51.442;6.996;2023-02-17T04:22:35;100584.31;;;11.33;60.46
4570;BME280;2297;51.442;6.996;2023-02-17T04:25:03;100591.41;;;11.31;60.02
4570;BME280;2297;51.442;6.996;2023-02-17T04:27:29;100586.59;;;11.52;59.78
4570;BME280;2297;51.442;6.996;2023-02-17T04:29:56;100587.41;;;11.08;60.51
4570;BME280;2297;51.442;6.996;2023-02-17T04:32:23;100581.16;;;11.14;60.34
4570;BME280;2297;51.442;6.996;2023-02-17T04:34:49;100566.06;;;11.21;60.19
4570;BME280;2297;51.442;6.996;2023-02-17T04:37:16;100551.56;;;10.92;60.84
4570;BME280;2297;51.442;6.996;2023-02-17T04:39:43;100553.56;;;10.79;61.57
4570;BME280;2297;51.442;6.996;2023-02-17T04:42:11;100548.13;;;10.88;61.16
4570;BME280;2297;51.442;6.996;2023-02-17T04:44:37;100540.59;;;11.17;60.02
4570;BME280;2297;51.442;6.996;2023-02-17T04:47:04;100540.41;;;11.26;60.06
4570;BME280;2297;51.442;6.996;2023-02-17T04:49:30;100554.56;;;10.73;61.61
4570;BME280;2297;51.442;6.996;2023-02-17T04:51:57;100557.34;;;11.16;60.55
4570;BME280;2297;51.442;6.996;2023-02-17T04:54:24;100563.63;;;11.08;60.29
4570;BME280;2297;51.442;6.996;2023-02-17T04:56:50;100554.66;;;11.17;59.94
4570;BME280;2297;51.442;6.996;2023-02-17T04:59:18;100550.41;;;11.08;60.21
4570;BME280;2297;51.442;6.996;2023-02-17T05:01:45;100541.78;;;10.97;60.86
4570;BME280;2297;51.442;6.996;2023-02-17T05:04:11;100555.72;;;11.05;60.49
4570;BME280;2297;51.442;6.996;2023-02-17T05:06:38;100561.84;;;11.09;60.04
4570;BME280;2297;51.442;6.996;2023-02-17T05:09:04;100546.84;;;11.12;60.23
4570;BME280;2297;51.442;6.996;2023-02-17T05:11:31;100561.16;;;10.97;60.57
4570;BME280;2297;51.442;6.996;2023-02-17T05:13:58;100565.38;;;11.08;60.15
4570;BME280;2297;51.442;6.996;2023-02-17T05:16:26;100586.97;;;10.81;60.65
4570;BME280;2297;51.442;6.996;2023-02-17T05:18:52;100575.91;;;11.12;59.91
4570;BME280;2297;51.442;6.996;2023-02-17T05:21:19;100577.66;;;11.13;59.60
4570;BME280;2297;51.442;6.996;2023-02-17T05:23:45;100562.69;;;11.09;59.50
4570;BME280;2297;51.442;6.996;2023-02-17T05:26:12;100555.69;;;11.08;59.85
4570;BME280;2297;51.442;6.996;2023-02-17T05:28:39;100546.09;;;11.03;59.90
4570;BME280;2297;51.442;6.996;2023-02-17T05:31:05;100544.72;;;10.81;61.22
4570;BME280;2297;51.442;6.996;2023-02-17T05:33:33;100557.66;;;10.97;60.77
4570;BME280;2297;51.442;6.996;2023-02-17T05:36:01;100554.97;;;10.98;60.98
4570;BME280;2297;51.442;6.996;2023-02-17T05:38:28;100551.38;;;11.04;61.11
4570;BME280;2297;51.442;6.996;2023-02-17T05:40:55;100544.78;;;11.27;60.31
4570;BME280;2297;51.442;6.996;2023-02-17T05:43:21;100552.13;;;11.12;60.81
4570;BME280;2297;51.442;6.996;2023-02-17T05:45:48;100554.50;;;11.25;60.48
4570;BME280;2297;51.442;6.996;2023-02-17T05:48:15;100539.50;;;11.27;60.65
4570;BME280;2297;51.442;6.996;2023-02-17T05:50:43;100544.25;;;11.06;61.24
4570;BME280;2297;51.442;6.996;2023-02-17T05:53:10;100537.59;;;11.34;60.17
4570;BME280;2297;51.442;6.996;2023-02-17T05:55:36;100540.06;;;11.43;59.79
4570;BME280;2297;51.442;6.996;2023-02-17T05:58:03;100543.28;;;11.13;60.67
4570;BME280;2297;51.442;6.996;2023-02-17T06:00:30;100539.88;;;11.05;60.75
4570;BME280;2297;51.442;6.996;2023-02-17T06:02:56;100538.19;;;11.01;60.72
4570;BME280;2297;51.442;6.996;2023-02-17T06:05:23;100533.91;;;10.95;60.95
4570;BME280;2297;51.442;6.996;2023-02-17T06:07:51;100555.63;;;11.13;60.87
4570;BME280;2297;51.442;6.996;2023-02-17T06:10:18;100534.91;;;10.90;61.10
4570;BME280;2297;51.442;6.996;2023-02-17T06:12:44;100538.44;;;10.89;61.39
4570;BME280;2297;51.442;6.996;2023-02-17T06:15:11;100527.44;;;11.13;60.42
4570;BME280;2297;51.442;6.996;2023-02-17T06:17:38;100516.88;;;11.13;60.79
4570;BME280;2297;51.442;6.996;2023-02-17T06:20:06;100533.25;;;10.82;61.57
4570;BME280;2297;51.442;6.996;2023-02-17T06:22:33;100527.88;;;10.89;61.92
4570;BME280;2297;51.442;6.996;2023-02-17T06:25:01;100528.34;;;11.12;61.12
4570;BME280;2297;51.442;6.996;2023-02-17T06:27:28;100552.22;;;11.05;61.05
4570;BME280;2297;51.442;6.996;2023-02-17T06:29:54;100540.00;;;10.99;61.37
4570;BME280;2297;51.442;6.996;2023-02-17T06:32:21;100551.97;;;11.19;60.95
4570;BME280;2297;51.442;6.996;2023-02-17T06:34:47;100549.94;;;11.33;60.56
4570;BME280;2297;51.442;6.996;2023-02-17T06:37:14;100543.44;;;11.03;61.67
4570;BME280;2297;51.442;6.996;2023-02-17T06:39:41;100542.25;;;11.21;61.07
4570;BME280;2297;51.442;6.996;2023-02-17T06:42:08;100550.09;;;11.25;60.92
4570;BME280;2297;51.442;6.996;2023-02-17T06:44:35;100545.88;;;11.17;60.98
4570;BME280;2297;51.442;6.996;2023-02-17T06:47:02;100545.00;;;11.14;61.55
4570;BME280;2297;51.442;6.996;2023-02-17T06:49:28;100547.91;;;11.01;61.87
4570;BME280;2297;51.442;6.996;2023-02-17T06:51:55;100544.03;;;11.19;61.47
4570;BME280;2297;51.442;6.996;2023-02-17T06:54:21;100543.66;;;10.92;62.99
4570;BME280;2297;51.442;6.996;2023-02-17T06:56:48;100547.63;;;11.16;63.05
4570;BME280;2297;51.442;6.996;2023-02-17T06:59:16;100545.28;;;10.99;63.85
4570;BME280;2297;51.442;6.996;2023-02-17T07:01:42;100545.16;;;11.05;64.25
4570;BME280;2297;51.442;6.996;2023-02-17T07:04:09;100553.03;;;11.10;64.24
4570;BME280;2297;51.442;6.996;2023-02-17T07:06:36;100545.94;;;11.13;64.71
4570;BME280;2297;51.442;6.996;2023-02-17T07:09:02;100549.44;;;11.14;64.95
4570;BME280;2297;51.442;6.996;2023-02-17T07:11:29;100531.13;;;11.03;65.25
4570;BME280;2297;51.442;6.996;2023-02-17T07:13:57;100529.72;;;10.84;65.53
4570;BME280;2297;51.442;6.996;2023-02-17T07:16:25;100541.28;;;11.25;64.47
4570;BME280;2297;51.442;6.996;2023-02-17T07:18:52;100560.06;;;11.12;64.97
4570;BME280;2297;51.442;6.996;2023-02-17T07:21:18;100555.94;;;10.94;65.29
4570;BME280;2297;51.442;6.996;2023-02-17T07:23:45;100556.91;;;10.90;65.49
4570;BME280;2297;51.442;6.996;2023-02-17T07:26:12;100550.09;;;10.77;65.53
4570;BME280;2297;51.442;6.996;2023-02-17T07:28:39;100561.09;;;11.02;65.23
4570;BME280;2297;51.442;6.996;2023-02-17T07:31:07;100564.09;;;10.82;65.40
4570;BME280;2297;51.442;6.996;2023-02-17T07:33:36;100552.19;;;11.06;64.60
4570;BME280;2297;51.442;6.996;2023-02-17T07:36:05;100560.97;;;11.08;64.71
4570;BME280;2297;51.442;6.996;2023-02-17T07:38:32;100555.66;;;11.11;64.20
4570;BME280;2297;51.442;6.996;2023-02-17T07:41:03;100543.19;;;11.18;64.04
4570;BME280;2297;51.442;6.996;2023-02-17T07:43:30;100552.22;;;11.05;64.47
4570;BME280;2297;51.442;6.996;2023-02-17T07:45:57;100551.38;;;11.03;64.64
4570;BME280;2297;51.442;6.996;2023-02-17T07:48:23;100540.38;;;11.27;63.99
4570;BME280;2297;51.442;6.996;2023-02-17T07:50:51;100540.31;;;11.29;63.75
4570;BME280;2297;51.442;6.996;2023-02-17T07:53:18;100544.03;;;11.20;63.93
4570;BME280;2297;51.442;6.996;2023-02-17T07:55:45;100542.75;;;10.93;64.55
4570;BME280;2297;51.442;6.996;2023-02-17T07:58:11;100553.00;;;11.11;64.11
4570;BME280;2297;51.442;6.996;2023-02-17T08:00:38;100545.97;;;11.10;64.04
4570;BME280;2297;51.442;6.996;2023-02-17T08:03:04;100542.88;;;10.87;64.29
4570;BME280;2297;51.442;6.996;2023-02-17T08:05:31;100531.75;;;11.16;63.93
4570;BME280;2297;51.442;6.996;2023-02-17T08:07:59;100537.66;;;11.30;63.27
4570;BME280;2297;51.442;6.996;2023-02-17T08:10:43;100542.44;;;11.11;64.18
4570;BME280;2297;51.442;6.996;2023-02-17T08:13:27;100540.38;;;11.27;63.23
4570;BME280;2297;51.442;6.996;2023-02-17T08:15:53;100546.91;;;11.06;64.15
4570;BME280;2297;51.442;6.996;2023-02-17T08:18:20;100538.09;;;11.07;64.38
4570;BME280;2297;51.442;6.996;2023-02-17T08:20:47;100546.75;;;11.16;64.16
4570;BME280;2297;51.442;6.996;2023-02-17T08:23:16;100535.03;;;10.82;64.88
4570;BME280;2297;51.442;6.996;2023-02-17T08:25:42;100540.28;;;11.30;63.64
4570;BME280;2297;51.442;6.996;2023-02-17T08:28:10;100540.66;;;11.13;63.73
4570;BME280;2297;51.442;6.996;2023-02-17T08:30:37;100532.88;;;11.03;64.42
4570;BME280;2297;51.442;6.996;2023-02-17T08:33:04;100518.41;;;11.24;63.63
4570;BME280;2297;51.442;6.996;2023-02-17T08:35:31;100515.56;;;10.88;64.90
4570;BME280;2297;51.442;6.996;2023-02-17T08:37:57;100533.09;;;11.37;63.45
4570;BME280;2297;51.442;6.996;2023-02-17T08:40:25;100527.22;;;11.24;63.33
4570;BME280;2297;51.442;6.996;2023-02-17T08:42:52;100519.75;;;11.43;63.08
4570;BME280;2297;51.442;6.996;2023-02-17T08:45:18;100505.44;;;11.54;62.35
4570;BME280;2297;51.442;6.996;2023-02-17T08:47:45;100515.03;;;11.16;63.61
4570;BME280;2297;51.442;6.996;2023-02-17T08:50:15;100522.78;;;11.25;63.36
4570;BME280;2297;51.442;6.996;2023-02-17T08:52:44;100518.88;;;10.99;64.06
4570;BME280;2297;51.442;6.996;2023-02-17T08:55:11;100522.94;;;11.17;63.70
4570;BME280;2297;51.442;6.996;2023-02-17T08:57:39;100524.13;;;11.46;62.85
4570;BME280;2297;51.442;6.996;2023-02-17T09:00:08;100522.09;;;11.59;62.43
4570;BME280;2297;51.442;6.996;2023-02-17T09:02:35;100527.22;;;11.67;61.62
4570;BME280;2297;51.442;6.996;2023-02-17T09:05:03;100519.66;;;11.89;61.04
4570;BME280;2297;51.442;6.996;2023-02-17T09:07:30;100536.78;;;11.72;61.37
4570;BME280;2297;51.442;6.996;2023-02-17T09:09:56;100543.28;;;11.57;61.50
4570;BME280;2297;51.442;6.996;2023-02-17T09:12:23;100540.59;;;11.17;63.02
4570;BME280;2297;51.442;6.996;2023-02-17T09:14:51;100530.91;;;11.58;62.04
4570;BME280;2297;51.442;6.996;2023-02-17T09:17:18;100538.50;;;11.33;62.58
4570;BME280;2297;51.442;6.996;2023-02-17T09:19:44;100546.41;;;11.34;62.80
4570;BME280;2297;51.442;6.996;2023-02-17T09:22:11;100549.44;;;11.58;61.96
4570;BME280;2297;51.442;6.996;2023-02-17T09:24:39;100543.94;;;11.67;61.85
4570;BME280;2297;51.442;6.996;2023-02-17T09:27:06;100539.94;;;11.47;62.06
4570;BME280;2297;51.442;6.996;2023-02-17T09:29:32;100537.19;;;11.54;61.62
4570;BME280;2297;51.442;6.996;2023-02-17T09:32:00;100531.13;;;11.88;61.10
4570;BME280;2297;51.442;6.996;2023-02-17T09:34:27;100535.44;;;11.93;60.82
4570;BME280;2297;51.442;6.996;2023-02-17T09:36:53;100531.97;;;11.90;61.00
4570;BME280;2297;51.442;6.996;2023-02-17T09:39:20;100538.94;;;11.94;61.13
4570;BME280;2297;51.442;6.996;2023-02-17T09:41:49;100546.44;;;12.12;60.54
4570;BME280;2297;51.442;6.996;2023-02-17T09:44:21;100533.97;;;11.80;60.80
4570;BME280;2297;51.442;6.996;2023-02-17T09:46:56;100548.13;;;12.17;60.48
4570;BME280;2297;51.442;6.996;2023-02-17T09:49:31;100546.44;;;12.12;60.40
4570;BME280;2297;51.442;6.996;2023-02-17T09:52:01;100548.88;;;11.84;61.27
4570;BME280;2297;51.442;6.996;2023-02-17T09:54:34;100551.66;;;11.78;61.46
4570;BME280;2297;51.442;6.996;2023-02-17T09:57:04;100547.47;;;12.07;60.80
4570;BME280;2297;51.442;6.996;2023-02-17T09:59:37;100557.44;;;12.35;59.83
4570;BME280;2297;51.442;6.996;2023-02-17T10:02:06;100561.09;;;11.90;60.90
4570;BME280;2297;51.442;6.996;2023-02-17T10:04:40;100557.09;;;12.11;60.45
4570;BME280;2297;51.442;6.996;2023-02-17T10:07:13;100544.59;;;12.16;60.36
4570;BME280;2297;51.442;6.996;2023-02-17T10:09:46;100548.63;;;11.95;60.67
4570;BME280;2297;51.442;6.996;2023-02-17T10:12:17;100563.50;;;12.01;60.47
4570;BME280;2297;51.442;6.996;2023-02-17T10:14:48;100575.94;;;12.36;59.65
4570;BME280;2297;51.442;6.996;2023-02-17T10:17:19;100566.88;;;12.46;59.32
4570;BME280;2297;51.442;6.996;2023-02-17T10:19:54;100568.22;;;12.63;58.64
4570;BME280;2297;51.442;6.996;2023-02-17T10:22:24;100571.94;;;12.56;58.63
4570;BME280;2297;51.442;6.996;2023-02-17T10:24:52;100582.84;;;12.42;59.35
4570;BME280;2297;51.442;6.996;2023-02-17T10:27:27;100583.56;;;12.48;59.23
4570;BME280;2297;51.442;6.996;2023-02-17T10:30:07;100586.16;;;12.52;59.23
4570;BME280;2297;51.442;6.996;2023-02-17T10:32:48;100595.22;;;12.77;58.56
4570;BME280;2297;51.442;6.996;2023-02-17T10:35:23;100594.56;;;12.69;58.62
4570;BME280;2297;51.442;6.996;2023-02-17T10:37:54;100585.00;;;12.62;58.99
4570;BME280;2297;51.442;6.996;2023-02-17T10:43:47;100559.91;;;12.42;58.90
4570;BME280;2297;51.442;6.996;2023-02-17T10:46:16;100554.84;;;12.33;59.70
4570;BME280;2297;51.442;6.996;2023-02-17T10:48:47;100543.06;;;12.79;58.25
4570;BME280;2297;51.442;6.996;2023-02-17T10:51:19;100549.91;;;12.54;58.48
4570;BME280;2297;51.442;6.996;2023-02-17T10:53:50;100556.09;;;12.53;58.71
4570;BME280;2297;51.442;6.996;2023-02-17T10:56:20;100562.63;;;12.74;58.52
4570;BME280;2297;51.442;6.996;2023-02-17T10:58:52;100548.09;;;12.56;59.09
4570;BME280;2297;51.442;6.996;2023-02-17T11:01:21;100562.69;;;12.36;58.94
4570;BME280;2297;51.442;6.996;2023-02-17T11:03:58;100543.69;;;12.55;59.30
4570;BME280;2297;51.442;6.996;2023-02-17T11:06:26;100542.88;;;12.86;57.97
4570;BME280;2297;51.442;6.996;2023-02-17T11:08:57;100540.53;;;12.40;59.38
4570;BME280;2297;51.442;6.996;2023-02-17T11:11:26;100522.50;;;12.55;58.93
4570;BME280;2297;51.442;6.996;2023-02-17T11:14:02;100531.19;;;12.60;58.85
4570;BME280;2297;51.442;6.996;2023-02-17T11:16:32;100527.19;;;12.45;58.41
4570;BME280;2297;51.442;6.996;2023-02-17T11:18:59;100516.34;;;12.53;57.80
4570;BME280;2297;51.442;6.996;2023-02-17T11:21:28;100518.72;;;12.96;57.18
4570;BME280;2297;51.442;6.996;2023-02-17T11:23:59;100538.22;;;12.95;56.89
4570;BME280;2297;51.442;6.996;2023-02-17T11:26:29;100528.22;;;12.72;57.65
4570;BME280;2297;51.442;6.996;2023-02-17T11:29:06;100523.00;;;12.69;57.27
4570;BME280;2297;51.442;6.996;2023-02-17T11:31:33;100518.53;;;12.71;57.37
4570;BME280;2297;51.442;6.996;2023-02-17T11:34:10;100503.06;;;12.89;57.04
4570;BME280;2297;51.442;6.996;2023-02-17T11:36:38;100520.91;;;13.13;56.29
4570;BME280;2297;51.442;6.996;2023-02-17T11:39:16;100523.47;;;13.50;55.29
4570;BME280;2297;51.442;6.996;2023-02-17T11:41:43;100510.72;;;13.00;55.74
4570;BME280;2297;51.442;6.996;2023-02-17T11:44:10;100510.28;;;13.46;54.89
4570;BME280;2297;51.442;6.996;2023-02-17T11:46:41;100503.63;;;13.63;54.18
4570;BME280;2297;51.442;6.996;2023-02-17T11:49:32;100521.00;;;13.43;54.49
4570;BME280;2297;51.442;6.996;2023-02-17T11:52:14;100534.06;;;13.18;54.74
4570;BME280;2297;51.442;6.996;2023-02-17T11:54:51;100561.75;;;13.41;53.80
4570;BME280;2297;51.442;6.996;2023-02-17T11:57:34;100528.06;;;13.11;54.86
4570;BME280;2297;51.442;6.996;2023-02-17T12:00:11;100524.25;;;13.22;54.53
4570;BME280;2297;51.442;6.996;2023-02-17T12:02:51;100527.47;;;13.33;54.16
4570;BME280;2297;51.442;6.996;2023-02-17T12:05:24;100514.50;;;13.54;53.52
4570;BME280;2297;51.442;6.996;2023-02-17T12:08:12;100503.09;;;13.19;54.69
4570;BME280;2297;51.442;6.996;2023-02-17T12:10:50;100486.50;;;13.43;54.07
4570;BME280;2297;51.442;6.996;2023-02-17T12:13:31;100480.03;;;13.52;53.70
4570;BME280;2297;51.442;6.996;2023-02-17T12:16:17;100490.56;;;13.55;53.85
4570;BME280;2297;51.442;6.996;2023-02-17T12:18:55;100506.56;;;13.52;54.23
4570;BME280;2297;51.442;6.996;2023-02-17T12:21:34;100501.13;;;13.57;53.92
4570;BME280;2297;51.442;6.996;2023-02-17T12:24:18;100500.59;;;14.02;52.80
4570;BME280;2297;51.442;6.996;2023-02-17T12:26:51;100507.38;;;13.84;53.18
4570;BME280;2297;51.442;6.996;2023-02-17T12:29:29;100501.59;;;13.71;53.62
4570;BME280;2297;51.442;6.996;2023-02-17T12:32:19;100494.25;;;13.79;53.62
4570;BME280;2297;51.442;6.996;2023-02-17T12:34:54;100491.31;;;13.60;53.91
4570;BME280;2297;51.442;6.996;2023-02-17T12:37:27;100503.50;;;13.66;54.34
4570;BME280;2297;51.442;6.996;2023-02-17T12:40:00;100485.66;;;13.71;54.18
4570;BME280;2297;51.442;6.996;2023-02-17T12:42:31;100484.59;;;13.49;54.73
4570;BME280;2297;51.442;6.996;2023-02-17T12:45:03;100490.56;;;13.55;54.71
4570;BME280;2297;51.442;6.996;2023-02-17T12:47:38;100488.59;;;13.62;54.75
4570;BME280;2297;51.442;6.996;2023-02-17T12:50:15;100489.13;;;13.73;54.15
4570;BME280;2297;51.442;6.996;2023-02-17T12:52:47;100491.25;;;13.62;54.07
4570;BME280;2297;51.442;6.996;2023-02-17T12:55:20;100511.47;;;13.36;55.11
4570;BME280;2297;51.442;6.996;2023-02-17T12:57:51;100496.06;;;13.18;56.16
4570;BME280;2297;51.442;6.996;2023-02-17T13:00:23;100484.66;;;13.45;55.26
4570;BME280;2297;51.442;6.996;2023-02-17T13:02:56;100486.50;;;13.43;55.23
4570;BME280;2297;51.442;6.996;2023-02-17T13:05:26;100489.78;;;13.52;55.16
4570;BME280;2297;51.442;6.996;2023-02-17T13:07:58;100497.22;;;13.40;55.56
4570;BME280;2297;51.442;6.996;2023-02-17T13:10:33;100507.56;;;13.78;54.25
4570;BME280;2297;51.442;6.996;2023-02-17T13:13:04;100494.63;;;13.67;54.76
4570;BME280;2297;51.442;6.996;2023-02-17T13:18:52;100499.66;;;13.76;54.56
4570;BME280;2297;51.442;6.996;2023-02-17T13:21:26;100514.75;;;13.74;54.75
4570;BME280;2297;51.442;6.996;2023-02-17T13:23:59;100514.22;;;13.63;54.94
4570;BME280;2297;51.442;6.996;2023-02-17T13:26:29;100514.28;;;13.90;54.44
4570;BME280;2297;51.442;6.996;2023-02-17T13:29:20;100503.78;;;14.13;53.84
4570;BME280;2297;51.442;6.996;2023-02-17T13:31:59;100503.50;;;13.94;54.10